createdAt,value
2024-01-14T00:01:31.726Z,-0.10
2024-01-14T00:03:58.983Z,0.10
2024-01-14T00:06:26.961Z,-0.30
2024-01-14T00:08:54.095Z,-0.20
2024-01-14T00:11:21.227Z,-0.20
2024-01-14T00:13:48.283Z,-0.20
2024-01-14T00:16:18.756Z,-0.20
2024-01-14T00:18:46.195Z,-0.20
2024-01-14T00:21:13.476Z,-0.10
2024-01-14T00:23:40.985Z,-0.50
2024-01-14T00:26:10.918Z,-0.30
2024-01-14T00:28:38.019Z,-0.30
2024-01-14T00:31:05.387Z,-0.20
2024-01-14T00:33:32.866Z,-0.20
2024-01-14T00:36:04.436Z,-0.10
2024-01-14T00:38:31.609Z,-0.40
2024-01-14T00:40:59.035Z,-0.40
2024-01-14T00:43:27.024Z,-0.50
2024-01-14T00:45:54.740Z,-0.30
2024-01-14T00:48:22.652Z,-0.40
2024-01-14T00:50:49.973Z,-0.40
2024-01-14T00:53:17.046Z,-0.60
2024-01-14T00:56:28.992Z,-0.20
2024-01-14T00:58:58.946Z,-0.40
2024-01-14T01:01:26.088Z,-0.40
2024-01-14T01:03:53.344Z,-0.30
2024-01-14T01:06:20.675Z,-0.30
2024-01-14T01:08:48.762Z,-0.40
2024-01-14T01:11:20.040Z,-0.50
2024-01-14T01:13:47.137Z,-0.50
2024-01-14T01:16:14.388Z,-0.40
2024-01-14T01:18:41.739Z,-0.40
2024-01-14T01:21:08.988Z,-0.30
2024-01-14T01:23:36.235Z,-0.40
2024-01-14T01:26:03.343Z,-0.50
2024-01-14T01:28:30.433Z,-0.40
2024-01-14T01:31:00.559Z,-0.50
2024-01-14T01:33:28.006Z,-0.30
2024-01-14T01:35:55.737Z,-0.40
2024-01-14T01:38:23.376Z,-0.50
2024-01-14T01:40:50.541Z,-0.30
2024-01-14T01:43:17.619Z,-0.30
2024-01-14T01:45:44.708Z,-0.50
2024-01-14T01:48:12.209Z,-0.60
2024-01-14T01:50:40.205Z,-0.60
2024-01-14T01:53:08.815Z,-0.60
2024-01-14T01:55:36.499Z,-0.50
2024-01-14T01:58:03.884Z,-0.30
2024-01-14T02:00:35.923Z,-0.40
2024-01-14T02:03:04.018Z,-0.50
2024-01-14T02:05:33.379Z,-0.50
2024-01-14T02:08:00.728Z,-0.60
2024-01-14T02:10:28.317Z,-0.50
2024-01-14T02:12:57.609Z,-0.50
2024-01-14T02:15:24.781Z,-0.60
2024-01-14T02:17:52.145Z,-0.50
2024-01-14T02:20:19.540Z,-0.60
2024-01-14T02:22:48.536Z,-0.70
2024-01-14T02:25:15.805Z,-0.80
2024-01-14T02:27:46.088Z,-0.60
2024-01-14T02:30:13.404Z,-0.80
2024-01-14T02:32:41.004Z,-0.70
2024-01-14T02:35:08.580Z,-0.80
2024-01-14T02:37:38.898Z,-0.90
2024-01-14T02:40:06.429Z,-0.70
2024-01-14T02:42:33.718Z,-0.70
2024-01-14T02:45:01.451Z,-0.90
2024-01-14T02:47:29.356Z,-0.80
2024-01-14T02:49:56.561Z,-0.70
2024-01-14T02:52:25.020Z,-0.70
2024-01-14T02:54:52.159Z,-0.70
2024-01-14T02:57:20.564Z,-0.70
2024-01-14T02:59:47.779Z,-0.70
2024-01-14T03:02:14.941Z,-0.70
2024-01-14T03:04:42.075Z,-0.70
2024-01-14T03:07:12.301Z,-0.60
2024-01-14T03:09:39.374Z,-0.50
2024-01-14T03:12:06.980Z,-0.40
2024-01-14T03:14:36.026Z,-0.80
2024-01-14T03:17:04.732Z,-0.70
2024-01-14T03:19:32.004Z,-0.60
2024-01-14T03:22:00.524Z,-0.60
2024-01-14T03:24:28.084Z,-0.60
2024-01-14T03:26:55.382Z,-0.50
2024-01-14T03:29:25.133Z,-0.70
2024-01-14T03:31:52.211Z,-0.70
2024-01-14T03:34:19.529Z,-0.70
2024-01-14T03:36:49.005Z,-0.70
2024-01-14T03:39:19.091Z,-0.70
2024-01-14T03:41:46.340Z,-0.50
2024-01-14T03:44:18.487Z,-0.70
2024-01-14T03:46:46.039Z,-0.60
2024-01-14T03:49:13.475Z,-0.60
2024-01-14T03:51:42.052Z,-0.70
2024-01-14T03:54:09.915Z,-0.60
2024-01-14T03:56:37.094Z,-0.70
2024-01-14T03:59:04.252Z,-0.80
2024-01-14T04:01:31.820Z,-0.60
2024-01-14T04:03:59.108Z,-0.80
2024-01-14T04:06:29.116Z,-0.70
2024-01-14T04:08:56.481Z,-0.80
2024-01-14T04:11:24.202Z,-0.70
2024-01-14T04:13:51.351Z,-0.70
2024-01-14T04:16:19.008Z,-0.70
2024-01-14T04:18:46.237Z,-0.70
2024-01-14T04:21:25.969Z,-0.70
2024-01-14T04:23:53.303Z,-0.70
2024-01-14T04:26:24.476Z,-0.70
2024-01-14T04:28:52.185Z,-0.70
2024-01-14T04:31:21.301Z,-0.90
2024-01-14T04:33:49.872Z,-1.00
2024-01-14T04:36:17.400Z,-0.80
2024-01-14T04:38:44.828Z,-1.00
2024-01-14T04:41:11.922Z,-0.90
2024-01-14T04:43:39.445Z,-1.00
2024-01-14T04:46:12.379Z,-0.90
2024-01-14T04:48:42.609Z,-0.80
2024-01-14T04:51:10.799Z,-1.00
2024-01-14T04:53:40.643Z,-0.80
2024-01-14T04:56:11.403Z,-0.90
2024-01-14T04:58:38.733Z,-1.00
2024-01-14T05:01:06.146Z,-0.90
2024-01-14T05:03:33.556Z,-0.90
2024-01-14T05:06:00.903Z,-0.90
2024-01-14T05:08:28.692Z,-0.90
2024-01-14T05:10:56.885Z,-1.00
2024-01-14T05:13:24.204Z,-1.10
2024-01-14T05:15:51.348Z,-0.70
2024-01-14T05:18:18.789Z,-0.80
2024-01-14T05:20:46.036Z,-0.90
2024-01-14T05:23:13.076Z,-0.90
2024-01-14T05:25:40.204Z,-1.00
2024-01-14T05:28:07.396Z,-1.10
2024-01-14T05:30:34.585Z,-0.80
2024-01-14T05:33:02.999Z,-0.80
2024-01-14T05:35:31.521Z,-1.00
2024-01-14T05:37:58.897Z,-0.70
2024-01-14T05:40:25.955Z,-0.90
2024-01-14T05:42:53.081Z,-0.80
2024-01-14T05:45:20.214Z,-0.90
2024-01-14T05:47:47.300Z,-0.80
2024-01-14T05:50:14.666Z,-0.90
2024-01-14T05:52:41.802Z,-1.10
2024-01-14T05:55:09.757Z,-0.90
2024-01-14T05:57:37.107Z,-1.00
2024-01-14T06:00:08.296Z,-1.00
2024-01-14T06:02:35.416Z,-1.00
2024-01-14T06:05:03.804Z,-0.80
2024-01-14T06:07:31.213Z,-0.70
2024-01-14T06:09:58.371Z,-0.70
2024-01-14T06:12:25.575Z,-0.60
2024-01-14T06:14:52.748Z,-0.70
2024-01-14T06:17:19.785Z,-0.70
2024-01-14T06:19:46.963Z,-0.60
2024-01-14T06:22:14.311Z,-0.70
2024-01-14T06:24:41.513Z,-0.60
2024-01-14T06:27:08.695Z,-0.60
2024-01-14T06:29:44.751Z,-0.60
2024-01-14T06:32:11.891Z,-0.80
2024-01-14T06:34:39.154Z,-0.90
2024-01-14T06:37:06.996Z,-1.10
2024-01-14T06:39:34.353Z,-0.90
2024-01-14T06:42:01.539Z,-0.80
2024-01-14T06:44:30.611Z,-0.90
2024-01-14T06:46:57.869Z,-0.80
2024-01-14T06:49:25.100Z,-0.80
2024-01-14T06:51:52.372Z,-0.90
2024-01-14T06:54:21.594Z,-0.70
2024-01-14T06:56:49.283Z,-0.70
2024-01-14T06:59:20.563Z,-0.60
2024-01-14T07:01:48.584Z,-0.90
2024-01-14T07:04:16.017Z,-0.60
2024-01-14T07:06:43.344Z,-0.70
2024-01-14T07:09:12.583Z,-0.70
2024-01-14T07:11:40.061Z,-0.70
2024-01-14T07:14:07.224Z,-0.60
2024-01-14T07:16:37.992Z,-0.60
2024-01-14T07:19:05.265Z,-0.60
2024-01-14T07:21:32.836Z,-0.60
2024-01-14T07:24:00.866Z,-0.70
2024-01-14T07:26:28.035Z,-0.70
2024-01-14T07:28:55.712Z,-0.70
2024-01-14T07:31:27.485Z,-0.80
2024-01-14T07:33:54.986Z,-0.90
2024-01-14T07:36:22.423Z,-1.00
2024-01-14T07:38:53.143Z,-1.00
2024-01-14T07:41:20.655Z,-0.90
2024-01-14T07:43:47.957Z,-1.20
2024-01-14T07:46:15.080Z,-1.20
2024-01-14T07:48:44.767Z,-1.20
2024-01-14T07:51:12.252Z,-1.20
2024-01-14T07:53:39.447Z,-1.10
2024-01-14T07:56:06.974Z,-0.90
2024-01-14T07:58:34.065Z,-0.90
2024-01-14T08:01:03.251Z,-1.00
2024-01-14T08:03:33.221Z,-0.80
2024-01-14T08:06:01.487Z,-0.70
2024-01-14T08:08:29.129Z,-1.00
2024-01-14T08:10:59.150Z,-0.90
2024-01-14T08:13:26.768Z,-0.80
2024-01-14T08:16:01.192Z,-0.70
2024-01-14T08:18:31.927Z,-0.80
2024-01-14T08:21:00.217Z,-0.60
2024-01-14T08:23:30.761Z,-0.70
2024-01-14T08:25:59.036Z,-0.50
2024-01-14T08:28:26.123Z,-0.50
2024-01-14T08:30:53.339Z,-0.60
2024-01-14T08:33:23.804Z,-0.60
2024-01-14T08:35:51.025Z,-0.70
2024-01-14T08:38:18.053Z,-0.50
2024-01-14T08:40:45.165Z,-0.60
2024-01-14T08:43:12.236Z,-0.50
2024-01-14T08:45:39.867Z,-0.50
2024-01-14T08:48:08.244Z,-0.40
2024-01-14T08:50:35.832Z,-0.50
2024-01-14T08:53:03.001Z,-0.50
2024-01-14T08:55:30.246Z,-0.50
2024-01-14T08:57:57.527Z,-0.50
2024-01-14T09:00:24.820Z,-0.50
2024-01-14T09:02:52.027Z,-0.30
2024-01-14T09:05:19.357Z,-0.30
2024-01-14T09:07:46.969Z,-0.20
2024-01-14T09:10:14.267Z,0.00
2024-01-14T09:12:41.705Z,-0.10
2024-01-14T09:15:09.420Z,-0.20
2024-01-14T09:17:36.700Z,-0.20
2024-01-14T09:20:06.506Z,0.10
2024-01-14T09:22:33.787Z,0.00
2024-01-14T09:25:02.910Z,0.20
2024-01-14T09:27:32.237Z,0.10
2024-01-14T09:30:00.349Z,0.10
2024-01-14T09:32:28.177Z,0.20
2024-01-14T09:34:56.489Z,0.10
2024-01-14T09:37:27.694Z,0.40
2024-01-14T09:39:55.216Z,0.10
2024-01-14T09:42:36.955Z,0.50
2024-01-14T09:45:05.842Z,0.40
2024-01-14T09:47:34.640Z,0.30
2024-01-14T09:50:02.791Z,0.60
2024-01-14T09:52:34.403Z,0.70
2024-01-14T09:55:02.370Z,0.90
2024-01-14T09:57:31.669Z,0.90
2024-01-14T10:00:05.514Z,0.60
2024-01-14T10:02:35.947Z,0.70
2024-01-14T10:05:03.181Z,0.80
2024-01-14T10:07:32.077Z,0.80
2024-01-14T10:09:59.721Z,1.00
2024-01-14T10:12:30.398Z,1.10
2024-01-14T10:14:58.057Z,1.10
2024-01-14T10:17:25.214Z,0.70
2024-01-14T10:20:04.315Z,1.00
2024-01-14T10:22:31.635Z,1.00
2024-01-14T10:24:58.904Z,0.80
2024-01-14T10:27:35.447Z,1.10
2024-01-14T10:30:13.993Z,1.30
2024-01-14T10:33:16.435Z,1.30
2024-01-14T10:35:30.762Z,1.10
2024-01-14T10:37:59.194Z,1.20
2024-01-14T10:40:26.647Z,1.00
2024-01-14T10:42:54.304Z,1.30
2024-01-14T10:45:22.295Z,1.20
2024-01-14T10:47:52.804Z,1.40
2024-01-14T10:50:21.709Z,1.20
2024-01-14T10:52:55.385Z,1.10
2024-01-14T10:55:31.887Z,1.30
2024-01-14T10:58:01.789Z,1.30
2024-01-14T11:00:30.461Z,0.90
2024-01-14T11:02:59.226Z,1.10
2024-01-14T11:05:27.255Z,1.20
2024-01-14T11:07:54.882Z,1.10
2024-01-14T11:10:22.206Z,1.20
2024-01-14T11:13:12.224Z,1.50
2024-01-14T11:15:42.689Z,1.20
2024-01-14T11:18:17.487Z,1.40
2024-01-14T11:21:02.346Z,1.50
2024-01-14T11:23:37.996Z,1.50
2024-01-14T11:26:05.321Z,1.50
2024-01-14T11:28:32.694Z,1.30
2024-01-14T11:31:04.952Z,1.50
2024-01-14T11:33:34.058Z,1.30
2024-01-14T11:36:04.535Z,1.60
2024-01-14T11:38:59.506Z,1.50
2024-01-14T11:41:30.469Z,1.50
2024-01-14T11:44:05.867Z,1.40
2024-01-14T11:46:48.324Z,1.50
2024-01-14T11:49:24.770Z,1.80
2024-01-14T11:52:04.293Z,1.70
2024-01-14T11:54:35.169Z,1.60
2024-01-14T11:57:26.518Z,1.70
2024-01-14T11:59:55.563Z,1.80
2024-01-14T12:02:23.236Z,1.60
2024-01-14T12:04:57.464Z,1.80
2024-01-14T12:07:31.064Z,1.60
2024-01-14T12:09:58.220Z,1.50
2024-01-14T12:12:27.916Z,1.70
2024-01-14T12:14:55.574Z,1.80
2024-01-14T12:17:23.307Z,1.60
2024-01-14T12:20:09.548Z,1.70
2024-01-14T12:22:37.104Z,1.90
2024-01-14T12:25:05.011Z,1.60
2024-01-14T12:27:32.405Z,1.80
2024-01-14T12:29:59.703Z,1.70
2024-01-14T12:32:26.973Z,1.80
2024-01-14T12:34:54.282Z,1.80
2024-01-14T12:37:23.546Z,1.90
2024-01-14T12:39:50.796Z,2.00
2024-01-14T12:42:18.082Z,2.00
2024-01-14T12:44:45.500Z,1.80
2024-01-14T12:47:13.722Z,2.00
2024-01-14T12:49:45.614Z,2.00
2024-01-14T12:52:12.924Z,2.10
2024-01-14T12:54:49.227Z,2.00
2024-01-14T12:57:20.571Z,2.00
2024-01-14T12:59:51.352Z,2.20
2024-01-14T13:02:19.206Z,2.10
2024-01-14T13:04:46.457Z,2.20
2024-01-14T13:07:14.308Z,2.40
2024-01-14T13:09:42.319Z,2.80
2024-01-14T13:12:09.713Z,3.00
2024-01-14T13:14:36.855Z,3.20
2024-01-14T13:17:04.215Z,3.10
2024-01-14T13:19:31.575Z,3.20
2024-01-14T13:21:58.875Z,3.30
2024-01-14T13:24:27.763Z,3.20
2024-01-14T13:26:56.563Z,3.00
2024-01-14T13:29:27.803Z,2.90
2024-01-14T13:31:54.987Z,2.50
2024-01-14T13:34:22.367Z,2.40
2024-01-14T13:36:50.910Z,2.20
2024-01-14T13:39:18.920Z,2.00
2024-01-14T13:41:46.269Z,1.90
2024-01-14T13:44:17.747Z,1.80
2024-01-14T13:46:48.042Z,1.70
2024-01-14T13:49:16.202Z,1.70
2024-01-14T13:51:43.804Z,1.60
2024-01-14T13:54:14.560Z,1.40
2024-01-14T13:56:45.913Z,1.60
2024-01-14T13:59:13.674Z,1.40
2024-01-14T14:01:41.756Z,1.40
2024-01-14T14:04:10.870Z,1.30
2024-01-14T14:06:39.460Z,1.50
2024-01-14T14:09:10.849Z,1.30
2024-01-14T14:11:41.526Z,1.10
2024-01-14T14:14:09.052Z,1.40
2024-01-14T14:16:41.483Z,1.20
2024-01-14T14:19:12.655Z,1.30
2024-01-14T14:24:11.814Z,1.50
2024-01-14T14:26:38.893Z,1.40
2024-01-14T14:29:06.544Z,1.30
2024-01-14T14:31:43.912Z,1.20
2024-01-14T14:34:17.059Z,1.20
2024-01-14T14:36:44.647Z,1.10
2024-01-14T14:39:12.033Z,0.90
2024-01-14T14:41:39.298Z,1.10
2024-01-14T14:44:06.705Z,1.00
2024-01-14T14:46:34.450Z,0.90
2024-01-14T14:49:02.045Z,1.30
2024-01-14T14:51:37.525Z,1.10
2024-01-14T14:54:07.905Z,1.10
2024-01-14T14:56:35.248Z,1.10
2024-01-14T14:59:02.524Z,1.00
2024-01-14T15:01:38.330Z,1.30
2024-01-14T15:04:12.123Z,1.10
2024-01-14T15:06:40.908Z,1.30
2024-01-14T15:09:09.842Z,1.20
2024-01-14T15:11:40.449Z,1.00
2024-01-14T15:14:09.603Z,1.20
2024-01-14T15:16:37.168Z,1.20
2024-01-14T15:19:05.097Z,0.90
2024-01-14T15:21:33.059Z,0.80
2024-01-14T15:24:00.477Z,0.80
2024-01-14T15:26:28.445Z,0.70
2024-01-14T15:28:55.636Z,0.70
2024-01-14T15:31:23.165Z,0.60
2024-01-14T15:33:51.158Z,0.90
2024-01-14T15:36:19.906Z,0.90
2024-01-14T15:38:48.528Z,0.60
2024-01-14T15:41:16.332Z,0.80
2024-01-14T15:43:43.951Z,0.70
2024-01-14T15:46:11.625Z,0.60
2024-01-14T15:48:41.694Z,0.90
2024-01-14T15:51:12.818Z,0.70
2024-01-14T15:53:42.452Z,0.60
2024-01-14T15:56:10.092Z,0.60
2024-01-14T15:58:40.228Z,0.60
2024-01-14T16:01:14.561Z,0.70
2024-01-14T16:03:44.835Z,0.70
2024-01-14T16:06:14.632Z,0.60
2024-01-14T16:08:44.566Z,0.80
2024-01-14T16:11:12.302Z,0.70
2024-01-14T16:13:42.665Z,0.80
2024-01-14T16:16:09.828Z,0.70
2024-01-14T16:18:37.241Z,0.50
2024-01-14T16:21:07.032Z,0.60
2024-01-14T16:23:37.748Z,0.50
2024-01-14T16:26:06.034Z,0.50
2024-01-14T16:28:33.519Z,0.40
2024-01-14T16:31:10.234Z,0.60
2024-01-14T16:33:47.639Z,0.60
2024-01-14T16:36:17.725Z,0.50
2024-01-14T16:38:46.173Z,0.50
2024-01-14T16:41:13.808Z,0.50
2024-01-14T16:43:41.397Z,0.70
2024-01-14T16:46:08.908Z,0.60
2024-01-14T16:48:36.989Z,0.40
2024-01-14T16:51:09.037Z,0.70
2024-01-14T16:53:44.392Z,0.50
2024-01-14T16:56:16.489Z,0.70
2024-01-14T16:58:45.465Z,0.80
2024-01-14T17:01:17.685Z,0.50
2024-01-14T17:03:50.637Z,0.50
2024-01-14T17:06:19.589Z,0.40
2024-01-14T17:08:48.019Z,0.60
2024-01-14T17:11:19.111Z,0.40
2024-01-14T17:13:46.856Z,0.40
2024-01-14T17:16:26.595Z,0.50
2024-01-14T17:18:57.056Z,0.70
2024-01-14T17:21:25.456Z,0.40
2024-01-14T17:23:52.972Z,0.50
2024-01-14T17:26:20.750Z,0.50
2024-01-14T17:28:47.922Z,0.50
2024-01-14T17:31:18.730Z,0.60
2024-01-14T17:33:55.959Z,0.70
2024-01-14T17:36:23.627Z,0.70
2024-01-14T17:38:52.209Z,0.80
2024-01-14T17:41:20.678Z,0.70
2024-01-14T17:43:48.400Z,1.10
2024-01-14T17:46:19.315Z,0.90
2024-01-14T17:48:51.257Z,0.80
2024-01-14T17:51:22.017Z,1.00
2024-01-14T17:53:50.652Z,0.80
2024-01-14T17:56:19.306Z,0.90
2024-01-14T17:58:47.086Z,0.90
2024-01-14T18:01:14.527Z,0.80
2024-01-14T18:03:42.668Z,0.80
2024-01-14T18:06:12.518Z,1.10
2024-01-14T18:08:40.401Z,0.80
2024-01-14T18:11:08.198Z,0.90
2024-01-14T18:13:36.539Z,0.90
2024-01-14T18:16:04.417Z,0.70
2024-01-14T18:18:32.194Z,0.70
2024-01-14T18:21:02.000Z,0.80
2024-01-14T18:23:29.455Z,1.00
2024-01-14T18:25:56.953Z,0.80
2024-01-14T18:28:24.057Z,0.90
2024-01-14T18:30:51.306Z,0.90
2024-01-14T18:33:18.689Z,0.70
2024-01-14T18:35:47.245Z,0.70
2024-01-14T18:38:16.200Z,0.60
2024-01-14T18:40:44.273Z,0.70
2024-01-14T18:43:12.501Z,0.70
2024-01-14T18:45:40.344Z,0.80
2024-01-14T18:48:09.002Z,1.10
2024-01-14T18:50:36.921Z,0.90
2024-01-14T18:53:06.402Z,1.00
2024-01-14T18:55:39.185Z,1.10
2024-01-14T18:58:07.625Z,1.20
2024-01-14T19:00:34.888Z,1.00
2024-01-14T19:03:02.483Z,1.00
2024-01-14T19:05:30.036Z,0.90
2024-01-14T19:07:58.450Z,1.00
2024-01-14T19:10:27.043Z,1.20
2024-01-14T19:12:57.065Z,1.00
2024-01-14T19:15:24.529Z,1.00
2024-01-14T19:17:51.873Z,1.20
2024-01-14T19:20:19.432Z,1.00
2024-01-14T19:22:46.592Z,1.20
2024-01-14T19:25:13.899Z,1.10
2024-01-14T19:27:41.107Z,1.00
2024-01-14T19:30:09.531Z,1.20
2024-01-14T19:32:37.153Z,1.10
2024-01-14T19:35:04.564Z,1.00
2024-01-14T19:37:34.545Z,1.40
2024-01-14T19:40:02.580Z,1.10
2024-01-14T19:42:30.918Z,1.20
2024-01-14T19:44:58.825Z,1.10
2024-01-14T19:47:26.184Z,1.00
2024-01-14T19:49:53.615Z,1.00
2024-01-14T19:52:20.815Z,1.00
2024-01-14T19:54:48.080Z,1.20
2024-01-14T19:57:15.544Z,1.10
2024-01-14T19:59:43.053Z,1.10
2024-01-14T20:02:10.263Z,1.20
2024-01-14T20:04:37.639Z,1.20
2024-01-14T20:07:04.979Z,1.20
2024-01-14T20:09:32.317Z,1.50
2024-01-14T20:12:01.636Z,1.30
2024-01-14T20:14:29.153Z,1.40
2024-01-14T20:16:57.346Z,1.80
2024-01-14T20:19:24.863Z,1.60
2024-01-14T20:21:52.536Z,1.70
2024-01-14T20:24:21.685Z,1.60
2024-01-14T20:26:49.019Z,1.70
2024-01-14T20:29:16.321Z,1.70
2024-01-14T20:31:43.422Z,1.50
2024-01-14T20:34:10.727Z,1.80
2024-01-14T20:36:37.937Z,1.80
2024-01-14T20:39:05.041Z,1.60
2024-01-14T20:41:32.189Z,1.60
2024-01-14T20:43:59.311Z,1.50
2024-01-14T20:46:26.717Z,1.40
2024-01-14T20:48:54.074Z,1.30
2024-01-14T20:51:21.656Z,1.20
2024-01-14T20:53:48.710Z,1.50
2024-01-14T20:56:15.790Z,1.40
2024-01-14T20:58:42.845Z,1.40
2024-01-14T21:01:10.254Z,1.50
2024-01-14T21:03:37.704Z,1.40
2024-01-14T21:06:05.400Z,1.50
2024-01-14T21:08:32.582Z,1.60
2024-01-14T21:10:59.739Z,1.60
2024-01-14T21:13:26.835Z,1.70
2024-01-14T21:15:54.256Z,1.60
2024-01-14T21:18:25.153Z,1.80
2024-01-14T21:20:53.541Z,1.80
2024-01-14T21:23:20.972Z,1.80
2024-01-14T21:25:48.675Z,1.70
2024-01-14T21:28:16.087Z,1.90
2024-01-14T21:30:43.470Z,1.90
2024-01-14T21:33:10.998Z,1.70
2024-01-14T21:35:38.328Z,2.00
2024-01-14T21:38:05.677Z,1.90
2024-01-14T21:40:32.921Z,2.00
2024-01-14T21:43:00.044Z,2.00
2024-01-14T21:45:28.930Z,1.90
2024-01-14T21:47:56.414Z,1.80
2024-01-14T21:50:24.135Z,2.00
2024-01-14T21:52:51.696Z,1.90
2024-01-14T21:55:18.905Z,2.10
2024-01-14T21:57:46.496Z,2.00
2024-01-14T22:00:14.293Z,2.10
2024-01-14T22:02:41.466Z,2.00
2024-01-14T22:05:08.949Z,2.00
2024-01-14T22:07:36.158Z,2.10
2024-01-14T22:10:03.513Z,2.00
2024-01-14T22:12:30.768Z,2.20
2024-01-14T22:14:57.900Z,2.10
2024-01-14T22:17:28.005Z,2.00
2024-01-14T22:19:55.349Z,2.30
2024-01-14T22:22:22.913Z,2.00
2024-01-14T22:24:50.473Z,2.20
2024-01-14T22:27:17.756Z,2.20
2024-01-14T22:29:44.893Z,2.10
2024-01-14T22:32:12.006Z,2.30
2024-01-14T22:34:39.249Z,2.30
2024-01-14T22:37:06.465Z,2.20
2024-01-14T22:39:33.806Z,2.20
2024-01-14T22:42:01.408Z,2.30
2024-01-14T22:44:29.025Z,2.50
2024-01-14T22:46:56.168Z,2.40
2024-01-14T22:49:23.353Z,2.40
2024-01-14T22:51:51.454Z,2.30
2024-01-14T22:54:19.128Z,2.30
2024-01-14T22:56:47.169Z,2.20
2024-01-14T22:59:14.232Z,2.20
2024-01-14T23:01:44.885Z,2.50
2024-01-14T23:04:12.963Z,2.50
2024-01-14T23:06:40.420Z,2.60
2024-01-14T23:09:07.959Z,2.40
2024-01-14T23:11:35.222Z,2.50
2024-01-14T23:14:02.426Z,2.50
2024-01-14T23:16:29.613Z,2.50
2024-01-14T23:18:56.846Z,2.50
2024-01-14T23:21:24.165Z,2.50
2024-01-14T23:23:51.351Z,2.50
2024-01-14T23:26:18.391Z,2.70
2024-01-14T23:28:45.944Z,2.90
2024-01-14T23:31:13.518Z,2.50
2024-01-14T23:33:40.796Z,2.80
2024-01-14T23:36:08.542Z,2.70
2024-01-14T23:38:36.770Z,2.80
2024-01-14T23:41:04.043Z,2.80
2024-01-14T23:43:31.195Z,2.80
2024-01-14T23:45:58.389Z,2.70
2024-01-14T23:48:25.729Z,2.70
2024-01-14T23:50:52.967Z,2.70
2024-01-14T23:53:21.138Z,2.70
2024-01-14T23:55:48.249Z,2.90
2024-01-14T23:58:15.458Z,3.00
